Time;durP1;ratioP1;P1;durP2;ratioP2;P2;SDS_P1;SDS_P2;PMS_P1;PMS_P2;Temp;Humidity;BMP_temperature;BMP_pressure;BME280_temperature;BME280_humidity;BME280_pressure;Samples;Min_cycle;Max_cycle;Signal;HPM_P1;HPM_P2
2021/12/31 00:01:43;;;;;;;90.30;39.63;;;4.70;99.90;;;;;;4879912;29;20188;-88
2021/12/31 00:04:09;;;;;;;108.43;48.13;;;4.40;99.90;;;;;;4880585;29;20196;-86
2021/12/31 00:06:36;;;;;;;103.33;48.37;;;;;;;;;;4881304;29;20265;-88
2021/12/31 00:09:03;;;;;;;103.17;46.83;;;4.40;99.90;;;;;;4881399;29;20218;-88
2021/12/31 00:11:29;;;;;;;109.60;46.27;;;4.30;99.90;;;;;;4880153;29;20647;-88
2021/12/31 00:13:54;;;;;;;97.07;45.90;;;4.40;99.90;;;;;;4881715;29;20189;-86
2021/12/31 00:16:20;;;;;;;93.17;41.23;;;4.40;99.90;;;;;;4881462;29;20222;-87
2021/12/31 00:18:46;;;;;;;96.27;44.87;;;;;;;;;;4880901;29;20661;-87
2021/12/31 00:21:12;;;;;;;106.73;45.40;;;;;;;;;;4881281;29;20185;-87
2021/12/31 00:23:41;;;;;;;100.73;43.17;;;4.50;99.90;;;;;;4879721;29;20639;-88
2021/12/31 00:26:07;;;;;;;104.03;44.47;;;4.40;99.90;;;;;;4880688;29;20269;-87
2021/12/31 00:28:32;;;;;;;98.83;45.17;;;4.40;99.90;;;;;;4880029;29;20399;-87
2021/12/31 00:30:58;;;;;;;91.83;40.37;;;4.10;99.90;;;;;;4864222;29;20525;-87
2021/12/31 00:33:24;;;;;;;95.47;42.87;;;4.30;99.90;;;;;;4880605;29;20221;-86
2021/12/31 00:35:50;;;;;;;88.87;42.03;;;4.30;99.90;;;;;;4864250;29;20241;-87
2021/12/31 00:38:16;;;;;;;86.33;40.77;;;;;;;;;;4880007;29;20182;-87
2021/12/31 00:40:42;;;;;;;83.80;40.47;;;;;;;;;;4879314;29;20225;-87
2021/12/31 00:43:11;;;;;;;87.93;39.67;;;4.50;99.90;;;;;;4879871;29;20190;-87
2021/12/31 00:45:40;;;;;;;80.77;36.53;;;4.10;99.90;;;;;;4879660;29;20501;-86
2021/12/31 00:48:06;;;;;;;85.17;38.27;;;;;;;;;;4879654;29;20195;-86
2021/12/31 00:50:32;;;;;;;73.97;36.60;;;4.50;99.90;;;;;;4880324;29;20189;-87
2021/12/31 00:52:58;;;;;;;76.07;37.23;;;4.50;99.90;;;;;;4878744;29;20224;-86
2021/12/31 00:55:23;;;;;;;74.67;35.43;;;4.80;99.90;;;;;;4880324;29;20221;-87
2021/12/31 00:57:49;;;;;;;72.33;34.43;;;4.60;99.90;;;;;;4879479;29;20632;-88
2021/12/31 01:00:16;;;;;;;48.37;26.03;;;4.90;99.90;;;;;;4863777;29;20186;-88
2021/12/31 01:02:46;;;;;;;62.70;30.97;;;4.50;99.90;;;;;;4880271;29;20189;-88
2021/12/31 01:05:15;;;;;;;61.43;31.90;;;4.50;99.90;;;;;;4880747;29;20259;-87
2021/12/31 01:07:41;;;;;;;63.73;31.33;;;;;;;;;;4878996;29;20189;-89
2021/12/31 01:10:12;;;;;;;61.80;30.57;;;4.30;99.90;;;;;;4879004;29;20194;-87
2021/12/31 01:12:38;;;;;;;52.33;25.63;;;;;;;;;;4879065;29;20320;-86
2021/12/31 01:15:08;;;;;;;56.33;30.00;;;4.20;99.90;;;;;;4878953;29;20234;-86
2021/12/31 01:18:15;;;;;;;52.27;27.53;;;4.50;99.90;;;;;;4880151;29;20186;-88
2021/12/31 01:20:35;;;;;;;54.00;28.20;;;4.60;99.90;;;;;;4879045;29;20571;-89
2021/12/31 01:23:02;;;;;;;54.60;28.57;;;4.50;99.90;;;;;;4878842;29;20199;-86
2021/12/31 01:25:27;;;;;;;56.27;28.53;;;4.40;99.90;;;;;;4879088;29;20200;-87
2021/12/31 01:27:53;;;;;;;48.63;26.37;;;4.60;99.90;;;;;;4878911;29;20766;-87
2021/12/31 01:30:19;;;;;;;47.07;25.40;;;4.70;99.90;;;;;;4863130;29;20197;-87
2021/12/31 01:32:46;;;;;;;48.53;25.80;;;4.80;99.90;;;;;;4879991;29;20665;-88
2021/12/31 01:35:12;;;;;;;46.47;24.73;;;4.50;99.90;;;;;;4879134;29;20269;-88
2021/12/31 01:37:38;;;;;;;46.50;23.33;;;4.50;99.90;;;;;;4879925;29;20189;-87
2021/12/31 01:40:05;;;;;;;42.67;22.57;;;4.50;99.90;;;;;;4879845;29;20919;-87
2021/12/31 01:42:33;;;;;;;43.90;23.40;;;4.60;99.90;;;;;;4878704;29;20635;-87
2021/12/31 01:45:14;;;;;;;39.10;22.03;;;4.60;99.90;;;;;;4878592;29;20196;-87
2021/12/31 01:48:32;;;;;;;40.10;22.27;;;4.60;99.90;;;;;;4879880;29;20164;-88
2021/12/31 01:50:28;;;;;;;40.80;22.50;;;4.50;99.90;;;;;;4878949;29;20190;-87
2021/12/31 01:52:55;;;;;;;39.50;21.13;;;4.60;99.90;;;;;;4879359;29;20227;-88
2021/12/31 01:55:23;;;;;;;36.17;19.60;;;4.60;99.90;;;;;;4878401;29;20769;-88
2021/12/31 01:57:49;;;;;;;38.10;20.53;;;;;;;;;;4879478;29;20189;-88
2021/12/31 02:00:15;;;;;;;41.73;21.57;;;4.60;99.90;;;;;;4879791;29;20196;-88
2021/12/31 02:02:45;;;;;;;41.80;22.07;;;4.50;99.90;;;;;;4878349;29;20192;-88
2021/12/31 02:05:11;;;;;;;38.73;19.77;;;4.50;99.90;;;;;;4862811;29;20201;-88
2021/12/31 02:07:37;;;;;;;36.00;20.07;;;4.40;99.90;;;;;;4862863;29;20185;-87
2021/12/31 02:10:06;;;;;;;37.20;20.50;;;4.50;99.90;;;;;;4879286;29;20198;-89
2021/12/31 02:12:32;;;;;;;39.03;19.13;;;4.50;99.90;;;;;;4878240;29;20301;-87
2021/12/31 02:14:59;;;;;;;37.87;19.63;;;4.40;99.90;;;;;;4878214;29;20191;-87
2021/12/31 02:17:24;;;;;;;35.83;19.50;;;4.30;99.90;;;;;;4879673;29;20181;-88
2021/12/31 02:20:04;;;;;;;37.13;18.77;;;4.40;99.90;;;;;;4878420;29;20204;-90
2021/12/31 02:22:29;;;;;;;33.13;17.97;;;4.50;99.90;;;;;;4878552;29;20272;-88
2021/12/31 02:24:57;;;;;;;24.13;14.43;;;4.40;99.90;;;;;;4877930;29;20261;-87
2021/12/31 02:27:24;;;;;;;25.83;14.57;;;4.60;99.90;;;;;;4879740;29;20221;-87
2021/12/31 02:29:50;;;;;;;34.70;18.07;;;4.50;99.90;;;;;;4877976;29;20185;-88
2021/12/31 02:32:16;;;;;;;32.27;17.43;;;4.60;99.90;;;;;;4877600;29;20273;-88
2021/12/31 02:34:42;;;;;;;36.13;18.60;;;4.60;99.90;;;;;;4879615;29;20186;-87
2021/12/31 02:37:08;;;;;;;36.30;19.30;;;;;;;;;;4879319;29;20238;-87
2021/12/31 02:39:38;;;;;;;34.67;17.37;;;;;;;;;;4878486;29;20186;-88
2021/12/31 02:42:05;;;;;;;25.47;14.23;;;4.80;99.90;;;;;;4879577;29;20184;-88
2021/12/31 02:44:30;;;;;;;32.57;16.87;;;4.50;99.90;;;;;;4878760;29;20190;-88
2021/12/31 02:46:56;;;;;;;35.23;19.20;;;4.60;99.90;;;;;;4862847;29;20657;-88
2021/12/31 02:49:24;;;;;;;35.83;18.97;;;;;;;;;;4878961;29;20186;-87
2021/12/31 02:51:50;;;;;;;36.57;18.03;;;4.50;99.90;;;;;;4878194;29;20546;-88
2021/12/31 02:54:16;;;;;;;37.87;19.70;;;4.20;99.90;;;;;;4878038;29;20252;-88
2021/12/31 02:56:42;;;;;;;23.13;12.83;;;4.60;99.90;;;;;;4879642;29;20689;-87
2021/12/31 02:59:10;;;;;;;33.47;15.83;;;;;;;;;;4877679;29;20189;-88
2021/12/31 03:01:36;;;;;;;35.53;18.40;;;;;;;;;;4879377;29;20639;-87
2021/12/31 03:04:04;;;;;;;37.23;20.13;;;4.90;99.90;;;;;;4878053;29;20197;-87
2021/12/31 03:06:30;;;;;;;43.07;18.37;;;;;;;;;;4879121;29;20222;-87
2021/12/31 03:08:58;;;;;;;33.30;17.67;;;4.60;99.90;;;;;;4877753;29;20550;-87
2021/12/31 03:11:24;;;;;;;40.90;20.57;;;4.60;99.90;;;;;;4877619;29;20189;-87
2021/12/31 03:13:54;;;;;;;35.97;16.30;;;4.70;99.90;;;;;;4878064;29;20189;-87
2021/12/31 03:16:21;;;;;;;34.07;18.40;;;4.80;99.90;;;;;;4882308;29;20185;-87
2021/12/31 03:18:49;;;;;;;37.87;19.13;;;4.60;99.90;;;;;;4880813;29;20635;-87
2021/12/31 03:21:21;;;;;;;38.53;18.43;;;4.60;99.90;;;;;;4880841;29;20602;-88
2021/12/31 03:23:52;;;;;;;37.57;17.73;;;4.90;99.90;;;;;;4866871;29;20243;-87
2021/12/31 03:26:18;;;;;;;39.43;19.37;;;;;;;;;;4881187;29;20190;-87
2021/12/31 03:28:44;;;;;;;45.50;19.23;;;4.80;99.90;;;;;;4881055;29;20193;-87
2021/12/31 03:31:10;;;;;;;35.20;19.57;;;4.40;99.90;;;;;;4880791;29;20639;-87
2021/12/31 03:33:35;;;;;;;39.43;20.23;;;4.40;99.90;;;;;;4882589;29;20253;-87
2021/12/31 03:36:01;;;;;;;38.63;19.13;;;4.60;99.90;;;;;;4881266;29;20451;-89
2021/12/31 03:38:26;;;;;;;25.33;12.77;;;4.60;99.90;;;;;;4882532;29;20228;-87
2021/12/31 03:40:53;;;;;;;43.70;19.53;;;;;;;;;;4882732;29;20268;-86
2021/12/31 03:43:19;;;;;;;47.63;19.93;;;;;;;;;;4881180;29;20192;-87
2021/12/31 03:45:46;;;;;;;44.67;20.40;;;4.50;99.90;;;;;;4882324;29;20182;-87
2021/12/31 03:48:12;;;;;;;37.60;18.43;;;4.70;99.90;;;;;;4882035;29;20217;-87
2021/12/31 03:50:38;;;;;;;44.00;19.83;;;4.70;99.90;;;;;;4865221;29;20231;-88
2021/12/31 03:53:03;;;;;;;42.40;20.13;;;4.80;99.90;;;;;;4880370;29;20579;-87
2021/12/31 03:55:29;;;;;;;39.90;18.83;;;4.60;99.90;;;;;;4865440;29;20627;-87
2021/12/31 03:57:55;;;;;;;44.27;17.33;;;4.60;99.90;;;;;;4882187;29;20668;-88
2021/12/31 04:00:20;;;;;;;47.53;19.97;;;4.60;99.90;;;;;;4880688;29;20266;-88
2021/12/31 04:02:46;;;;;;;52.43;20.50;;;4.90;99.90;;;;;;4881540;29;20552;-88
2021/12/31 04:05:12;;;;;;;47.10;19.67;;;4.70;99.90;;;;;;4880682;29;20261;-87
2021/12/31 04:07:37;;;;;;;41.87;19.80;;;4.70;99.90;;;;;;4849991;29;20598;-87
2021/12/31 04:10:04;;;;;;;48.43;20.40;;;4.80;99.90;;;;;;4882204;29;20190;-87
2021/12/31 04:12:30;;;;;;;42.80;18.80;;;;;;;;;;4880394;29;20221;-87
2021/12/31 04:14:56;;;;;;;51.83;20.27;;;4.40;99.90;;;;;;4880356;29;20569;-89
2021/12/31 04:17:22;;;;;;;50.20;21.17;;;;;;;;;;4880556;29;20197;-89
2021/12/31 04:19:52;;;;;;;53.10;19.97;;;4.60;99.90;;;;;;4881907;29;20580;-89
2021/12/31 04:22:20;;;;;;;46.60;19.50;;;;;;;;;;4882421;29;20191;-89
2021/12/31 04:27:12;;;;;;;58.53;19.63;;;6.00;99.90;;;;;;4889318;29;20178;-91
2021/12/31 04:29:39;;;;;;;44.70;19.23;;;5.10;99.90;;;;;;4905325;29;20253;-89
2021/12/31 04:32:06;;;;;;;53.97;17.60;;;4.80;99.90;;;;;;4904205;29;20229;-89
2021/12/31 04:34:32;;;;;;;49.67;20.13;;;;;;;;;;4904245;29;20214;-87
2021/12/31 04:36:58;;;;;;;59.47;19.37;;;4.50;99.90;;;;;;4905034;29;20190;-87
2021/12/31 04:39:24;;;;;;;65.60;21.60;;;4.40;99.90;;;;;;4904150;29;20187;-88
2021/12/31 04:41:50;;;;;;;58.97;21.17;;;4.50;99.90;;;;;;4904340;29;20178;-87
2021/12/31 04:44:15;;;;;;;70.27;19.73;;;4.70;99.90;;;;;;4904069;29;20264;-88
2021/12/31 04:46:41;;;;;;;54.63;19.97;;;5.40;99.90;;;;;;4904333;29;20177;-92
2021/12/31 04:49:07;;;;;;;78.63;19.80;;;4.70;99.90;;;;;;4873162;29;20178;-88
2021/12/31 04:51:33;;;;;;;66.77;19.97;;;4.70;99.90;;;;;;4903968;29;20180;-89
2021/12/31 04:53:59;;;;;;;62.67;19.07;;;4.70;99.90;;;;;;4904307;29;20228;-89
2021/12/31 04:56:25;;;;;;;66.00;18.17;;;;;;;;;;4904082;29;20205;-90
2021/12/31 04:58:51;;;;;;;76.47;19.57;;;4.90;99.90;;;;;;4889523;29;20711;-89
2021/12/31 05:01:21;;;;;;;61.80;19.97;;;4.70;99.90;;;;;;4880154;29;20289;-89
2021/12/31 05:03:47;;;;;;;59.57;19.67;;;;;;;;;;4864171;29;20253;-89
2021/12/31 05:06:12;;;;;;;61.93;16.53;;;4.70;99.90;;;;;;4880082;29;20269;-88
2021/12/31 05:08:38;;;;;;;60.00;19.17;;;4.70;99.90;;;;;;4879947;29;20533;-88
2021/12/31 05:11:04;;;;;;;65.07;19.10;;;4.80;99.90;;;;;;4881294;29;20268;-88
2021/12/31 05:13:30;;;;;;;78.63;18.53;;;4.70;99.90;;;;;;4879471;29;20580;-87
2021/12/31 05:16:01;;;;;;;61.57;18.70;;;4.80;99.90;;;;;;4881738;29;20193;-88
2021/12/31 05:18:27;;;;;;;78.37;19.37;;;;;;;;;;4850488;29;20194;-88
2021/12/31 05:20:53;;;;;;;80.73;23.40;;;4.70;99.90;;;;;;4880018;29;20191;-88
2021/12/31 05:23:19;;;;;;;153.03;48.40;;;;;;;;;;4864319;29;20289;-89
2021/12/31 05:25:44;;;;;;;85.97;29.93;;;4.80;99.90;;;;;;4864942;29;20241;-88
2021/12/31 05:28:10;;;;;;;76.37;30.23;;;4.60;99.90;;;;;;4880773;29;20190;-88
2021/12/31 05:30:36;;;;;;;69.00;20.63;;;4.70;99.90;;;;;;4848455;29;20300;-88
2021/12/31 05:33:02;;;;;;;77.30;28.40;;;;;;;;;;4863198;29;20241;-88
2021/12/31 05:35:27;;;;;;;69.63;23.20;;;4.50;99.90;;;;;;4879855;29;20196;-86
2021/12/31 05:37:53;;;;;;;76.40;21.90;;;4.70;99.90;;;;;;4883166;29;20197;-88
2021/12/31 05:40:19;;;;;;;58.10;19.17;;;5.10;99.90;;;;;;4888904;29;20222;-91
2021/12/31 05:42:45;;;;;;;58.63;23.87;;;4.50;99.90;;;;;;4891647;29;20268;-88
2021/12/31 05:45:11;;;;;;;74.67;30.67;;;4.70;99.90;;;;;;4893395;29;20211;-87
2021/12/31 05:47:38;;;;;;;52.93;18.07;;;4.70;99.90;;;;;;4891855;29;20190;-87
2021/12/31 05:50:07;;;;;;;61.80;16.97;;;4.70;99.90;;;;;;4896477;29;20186;-87
2021/12/31 05:52:34;;;;;;;61.20;17.33;;;4.80;99.90;;;;;;4900442;29;20225;-89
2021/12/31 05:54:59;;;;;;;56.23;16.83;;;4.80;99.90;;;;;;4901161;29;20260;-93
2021/12/31 05:57:25;;;;;;;57.63;16.87;;;4.90;99.90;;;;;;4899724;29;20182;-89
2021/12/31 05:59:51;;;;;;;57.03;16.10;;;4.90;99.90;;;;;;4898583;29;20182;-87
2021/12/31 06:02:17;;;;;;;51.13;17.17;;;;;;;;;;4895165;29;20201;-88
2021/12/31 06:04:42;;;;;;;64.73;16.57;;;5.00;99.90;;;;;;4878512;29;20193;-88
2021/12/31 06:07:08;;;;;;;55.60;16.63;;;5.00;99.90;;;;;;4863336;29;20663;-87
2021/12/31 06:09:34;;;;;;;43.57;13.33;;;;;;;;;;4863316;29;20658;-90
2021/12/31 06:12:00;;;;;;;60.90;16.17;;;;;;;;;;4878796;29;20217;-88
2021/12/31 06:14:27;;;;;;;59.93;17.23;;;;;;;;;;4878405;29;20193;-91
2021/12/31 06:16:53;;;;;;;53.77;15.63;;;;;;;;;;4863135;29;20185;-90
2021/12/31 06:19:19;;;;;;;52.50;16.53;;;;;;;;;;4880033;29;20182;-88
2021/12/31 06:21:46;;;;;;;67.07;17.70;;;5.20;99.90;;;;;;4878639;29;20305;-90
2021/12/31 06:24:12;;;;;;;65.93;21.13;;;;;;;;;;4878983;29;20280;-90
2021/12/31 06:26:38;;;;;;;68.83;15.50;;;;;;;;;;4863020;29;20201;-87
2021/12/31 06:29:04;;;;;;;58.63;16.93;;;5.20;99.90;;;;;;4865120;29;20293;-87
2021/12/31 06:31:30;;;;;;;56.53;19.00;;;;;;;;;;4861153;29;20197;-88
2021/12/31 06:33:56;;;;;;;64.20;20.07;;;5.30;99.90;;;;;;4856167;29;20744;-89
2021/12/31 06:36:22;;;;;;;74.87;19.57;;;5.10;99.90;;;;;;4858033;29;20194;-88
2021/12/31 06:38:51;;;;;;;80.37;20.23;;;5.30;99.90;;;;;;4859663;29;20611;-89
2021/12/31 06:41:17;;;;;;;60.30;18.27;;;5.20;99.90;;;;;;4854713;29;20274;-87
2021/12/31 06:43:44;;;;;;;65.00;20.17;;;5.60;99.90;;;;;;4857329;29;20203;-88
2021/12/31 06:46:09;;;;;;;52.10;17.03;;;5.30;99.90;;;;;;4858956;29;20205;-90
2021/12/31 06:48:35;;;;;;;54.07;18.07;;;5.40;99.90;;;;;;4855696;29;20221;-87
2021/12/31 06:51:00;;;;;;;53.13;16.53;;;5.50;99.90;;;;;;4861589;29;20201;-88
2021/12/31 06:53:26;;;;;;;50.33;14.93;;;;;;;;;;4859599;29;20250;-88
2021/12/31 06:55:52;;;;;;;51.20;16.97;;;5.40;99.90;;;;;;4857625;29;20226;-89
2021/12/31 06:58:18;;;;;;;48.37;17.87;;;;;;;;;;4877445;29;20238;-86
2021/12/31 07:00:44;;;;;;;50.33;15.40;;;5.50;99.90;;;;;;4863816;29;20303;-89
2021/12/31 07:03:13;;;;;;;52.33;14.40;;;5.60;99.90;;;;;;4861954;29;20293;-88
2021/12/31 07:05:43;;;;;;;46.93;15.70;;;5.90;99.90;;;;;;4862275;29;20199;-89
2021/12/31 07:08:10;;;;;;;41.23;15.63;;;5.70;99.90;;;;;;4875862;29;20197;-88
2021/12/31 07:10:36;;;;;;;45.17;15.40;;;5.70;99.90;;;;;;4861532;29;20282;-89
2021/12/31 07:13:10;;;;;;;40.17;11.63;;;5.80;99.90;;;;;;4861459;29;20309;-88
2021/12/31 07:15:38;;;;;;;38.90;11.80;;;5.80;99.90;;;;;;4855845;29;20198;-89
2021/12/31 07:18:04;;;;;;;42.37;15.23;;;;;;;;;;4846153;29;20587;-89
2021/12/31 07:20:30;;;;;;;56.30;16.27;;;;;;;;;;4861620;29;20198;-88
2021/12/31 07:22:55;;;;;;;43.97;14.93;;;;;;;;;;4860983;29;20198;-88
2021/12/31 07:25:21;;;;;;;43.73;15.13;;;;;;;;;;4845349;29;20637;-88
2021/12/31 07:27:50;;;;;;;43.10;15.50;;;;;;;;;;4857933;29;20194;-87
2021/12/31 07:30:16;;;;;;;39.90;14.63;;;;;;;;;;4844184;29;20712;-88
2021/12/31 07:32:42;;;;;;;42.73;14.80;;;;;;;;;;4857950;29;20275;-88
2021/12/31 07:35:08;;;;;;;43.60;15.93;;;6.20;99.90;;;;;;4858024;29;20211;-88
2021/12/31 07:37:34;;;;;;;33.63;14.60;;;;;;;;;;4858078;29;20194;-88
2021/12/31 07:40:04;;;;;;;33.53;14.07;;;;;;;;;;4860134;29;20278;-88
2021/12/31 07:42:30;;;;;;;31.23;11.83;;;;;;;;;;4860916;29;20198;-88
2021/12/31 07:44:56;;;;;;;25.80;11.80;;;;;;;;;;4862437;29;20222;-88
2021/12/31 07:47:22;;;;;;;25.13;13.00;;;;;;;;;;4861314;29;20210;-89
2021/12/31 07:49:48;;;;;;;27.20;11.90;;;6.50;99.90;;;;;;4852371;29;20632;-88
2021/12/31 07:52:14;;;;;;;21.57;11.57;;;;;;;;;;4858882;29;20218;-89
2021/12/31 07:54:40;;;;;;;26.13;11.70;;;;;;;;;;4861841;29;20321;-86
2021/12/31 07:57:06;;;;;;;31.93;13.37;;;;;;;;;;4846380;29;20198;-88
2021/12/31 07:59:32;;;;;;;28.80;12.63;;;;;;;;;;4862139;29;20217;-88
2021/12/31 08:01:58;;;;;;;25.07;12.83;;;;;;;;;;4861376;29;20622;-89
2021/12/31 08:04:24;;;;;;;26.17;12.67;;;;;;;;;;4861660;29;20194;-88
2021/12/31 08:06:50;;;;;;;26.17;11.97;;;6.50;99.90;;;;;;4862858;29;20202;-87
2021/12/31 08:09:16;;;;;;;24.30;12.87;;;;;;;;;;4860788;29;20222;-87
2021/12/31 08:11:42;;;;;;;21.77;10.70;;;;;;;;;;4858353;29;20649;-88
2021/12/31 08:14:08;;;;;;;25.13;12.50;;;;;;;;;;4857773;29;20568;-87
2021/12/31 08:16:34;;;;;;;27.47;12.23;;;;;;;;;;4858779;29;20730;-87
2021/12/31 08:19:00;;;;;;;29.67;12.57;;;;;;;;;;4854713;29;20280;-87
2021/12/31 08:21:26;;;;;;;25.73;12.40;;;;;;;;;;4844876;29;20199;-89
2021/12/31 08:23:52;;;;;;;19.00;9.47;;;;;;;;;;4857230;29;20652;-89
2021/12/31 08:26:17;;;;;;;19.07;10.10;;;7.00;99.90;;;;;;4859590;29;20424;-90
2021/12/31 08:28:43;;;;;;;14.40;6.73;;;6.50;99.90;;;;;;4854594;29;20194;-88
2021/12/31 08:31:09;;;;;;;21.13;10.10;;;6.50;99.90;;;;;;4840958;29;20681;-87
2021/12/31 08:33:35;;;;;;;21.37;10.10;;;;;;;;;;4862335;29;20223;-87
2021/12/31 08:36:01;;;;;;;21.40;9.93;;;;;;;;;;4842295;29;20194;-87
2021/12/31 08:38:27;;;;;;;18.93;10.87;;;;;;;;;;4862477;29;20711;-90
2021/12/31 08:40:54;;;;;;;19.77;11.07;;;7.00;99.90;;;;;;4840639;29;20198;-89
2021/12/31 08:43:20;;;;;;;20.87;11.10;;;;;;;;;;4857109;29;20190;-89
2021/12/31 08:45:46;;;;;;;17.60;10.30;;;;;;;;;;4859124;29;20269;-89
2021/12/31 08:48:12;;;;;;;20.87;10.43;;;;;;;;;;4843737;29;20281;-89
2021/12/31 08:50:38;;;;;;;19.23;10.80;;;;;;;;;;4852030;29;20286;-89
2021/12/31 08:53:05;;;;;;;19.60;8.73;;;;;;;;;;4841071;29;20218;-88
2021/12/31 08:55:31;;;;;;;17.40;8.90;;;;;;;;;;4855396;29;20222;-88
2021/12/31 08:57:57;;;;;;;18.53;8.93;;;;;;;;;;4862906;29;20191;-87
2021/12/31 09:00:23;;;;;;;16.17;8.73;;;;;;;;;;4861869;29;20202;-88
2021/12/31 09:02:50;;;;;;;15.53;9.00;;;;;;;;;;4854723;29;20221;-88
2021/12/31 09:05:17;;;;;;;18.90;10.40;;;7.00;99.90;;;;;;4853910;29;20218;-87
2021/12/31 09:07:43;;;;;;;16.63;8.53;;;;;;;;;;4859022;29;20262;-86
2021/12/31 09:10:09;;;;;;;16.87;9.23;;;;;;;;;;4861425;29;20187;-86
2021/12/31 09:12:36;;;;;;;17.07;9.70;;;7.10;99.90;;;;;;4860788;29;20214;-87
2021/12/31 09:15:02;;;;;;;15.37;9.73;;;;;;;;;;4861444;29;20198;-87
2021/12/31 09:17:28;;;;;;;17.20;8.53;;;;;;;;;;4860659;29;20206;-87
2021/12/31 09:19:54;;;;;;;17.83;10.47;;;;;;;;;;4845187;29;20201;-88
2021/12/31 09:22:20;;;;;;;18.63;10.20;;;7.10;99.90;;;;;;4845331;29;20632;-85
2021/12/31 09:24:48;;;;;;;18.07;8.63;;;7.20;99.90;;;;;;4856049;29;20194;-92
2021/12/31 09:27:14;;;;;;;18.73;10.27;;;;;;;;;;4853878;29;20210;-85
2021/12/31 09:29:40;;;;;;;19.43;10.60;;;;;;;;;;4857967;29;20186;-86
2021/12/31 09:32:08;;;;;;;23.33;11.80;;;7.20;99.90;;;;;;4861310;29;20227;-88
2021/12/31 09:34:34;;;;;;;23.23;11.93;;;7.30;99.90;;;;;;4856457;29;20320;-84
2021/12/31 09:37:00;;;;;;;23.27;12.87;;;;;;;;;;4842814;29;20201;-87
2021/12/31 09:39:26;;;;;;;20.60;11.27;;;7.60;99.90;;;;;;4856999;29;20269;-86
2021/12/31 09:41:52;;;;;;;27.13;14.30;;;;;;;;;;4844211;29;20663;-86
2021/12/31 09:44:21;;;;;;;26.30;15.53;;;7.40;99.90;;;;;;4852793;29;20203;-89
2021/12/31 09:46:47;;;;;;;25.00;13.97;;;;;;;;;;4839509;29;20667;-87
2021/12/31 09:49:13;;;;;;;27.33;16.07;;;;;;;;;;4858555;29;20255;-86
2021/12/31 09:51:42;;;;;;;26.03;13.00;;;7.50;99.90;;;;;;4856231;29;20195;-87
2021/12/31 09:54:09;;;;;;;26.20;14.77;;;;;;;;;;4849089;29;20619;-87
2021/12/31 09:56:39;;;;;;;26.30;14.67;;;;;;;;;;4860640;29;20186;-84
2021/12/31 09:59:05;;;;;;;22.77;13.20;;;7.50;99.90;;;;;;4855992;29;20206;-84
2021/12/31 10:01:31;;;;;;;22.53;13.00;;;;;;;;;;4853776;29;20322;-84
2021/12/31 10:04:00;;;;;;;20.47;11.07;;;7.50;99.90;;;;;;4855392;29;20285;-84
2021/12/31 10:06:26;;;;;;;20.40;9.63;;;;;;;;;;4861630;29;20179;-84
2021/12/31 10:08:57;;;;;;;21.43;11.53;;;7.50;99.90;;;;;;4860131;29;20182;-83
2021/12/31 10:11:25;;;;;;;19.60;11.93;;;8.00;99.90;;;;;;4853494;29;20217;-84
2021/12/31 10:13:59;;;;;;;21.13;10.67;;;7.60;99.90;;;;;;4854726;29;20229;-86
2021/12/31 10:16:29;;;;;;;22.57;12.23;;;7.70;99.90;;;;;;4852089;29;20190;-87
2021/12/31 10:19:08;;;;;;;20.50;9.47;;;7.70;99.90;;;;;;4856350;29;20186;-85
2021/12/31 10:21:46;;;;;;;22.63;11.53;;;7.70;99.90;;;;;;4858786;29;20198;-86
2021/12/31 10:24:39;;;;;;;23.83;11.53;;;7.80;99.90;;;;;;4862085;29;20797;-86
2021/12/31 10:27:12;;;;;;;18.37;10.73;;;7.80;99.90;;;;;;4862988;29;20194;-85
2021/12/31 10:29:53;;;;;;;26.50;11.70;;;7.80;99.90;;;;;;4865991;29;20335;-88
2021/12/31 10:32:19;;;;;;;18.60;11.03;;;7.80;99.90;;;;;;4864709;29;20222;-87
2021/12/31 10:34:45;;;;;;;23.47;9.90;;;7.80;99.90;;;;;;4864432;29;20197;-87
2021/12/31 10:37:22;;;;;;;19.57;10.60;;;7.90;99.90;;;;;;4864065;29;20178;-88
2021/12/31 10:39:59;;;;;;;18.73;9.93;;;7.90;99.90;;;;;;4864795;29;20170;-88
2021/12/31 10:42:30;;;;;;;17.23;10.20;;;7.90;99.90;;;;;;4864569;29;20515;-88
2021/12/31 10:44:57;;;;;;;21.07;9.90;;;7.90;99.90;;;;;;4864566;29;20186;-87
2021/12/31 10:47:24;;;;;;;24.43;10.80;;;8.00;99.90;;;;;;4871673;29;20190;-87
2021/12/31 10:50:16;;;;;;;18.90;10.07;;;8.00;99.90;;;;;;4883902;29;20191;-87
2021/12/31 10:52:58;;;;;;;18.23;9.20;;;8.00;99.90;;;;;;4870103;29;20256;-86
2021/12/31 10:55:34;;;;;;;22.40;10.50;;;8.00;99.90;;;;;;4872846;29;20207;-88
2021/12/31 10:58:04;;;;;;;18.03;9.10;;;8.10;99.90;;;;;;4874533;29;20175;-87
2021/12/31 11:00:37;;;;;;;18.37;9.43;;;8.10;99.90;;;;;;4879612;29;20179;-88
2021/12/31 11:03:04;;;;;;;17.50;9.13;;;8.10;99.90;;;;;;4885873;29;20213;-87
2021/12/31 11:05:30;;;;;;;20.23;9.13;;;8.10;99.90;;;;;;4881909;29;20184;-87
2021/12/31 11:08:00;;;;;;;16.97;8.57;;;8.10;99.90;;;;;;4866053;29;20181;-89
2021/12/31 11:10:30;;;;;;;18.97;9.30;;;8.20;99.90;;;;;;4879203;29;20247;-89
2021/12/31 11:12:57;;;;;;;19.30;9.20;;;8.20;99.90;;;;;;4883004;29;20218;-93
2021/12/31 11:15:23;;;;;;;20.07;9.97;;;8.20;99.90;;;;;;4881169;29;20481;-91
2021/12/31 11:17:52;;;;;;;11.43;7.57;;;8.20;99.90;;;;;;4881917;29;20188;-92
2021/12/31 11:20:23;;;;;;;23.00;9.90;;;8.20;99.90;;;;;;4874994;29;20195;-88
2021/12/31 11:22:49;;;;;;;17.37;8.97;;;8.30;99.90;;;;;;4856564;29;20206;-89
2021/12/31 11:25:20;;;;;;;16.37;9.00;;;8.30;99.90;;;;;;4861564;29;20202;-88
2021/12/31 11:27:47;;;;;;;18.70;9.40;;;8.30;99.90;;;;;;4842316;29;20214;-87
2021/12/31 11:30:28;;;;;;;13.30;8.03;;;8.30;99.90;;;;;;4858202;29;20260;-88
2021/12/31 11:32:56;;;;;;;17.00;8.87;;;8.30;99.90;;;;;;4860671;29;20225;-87
2021/12/31 11:35:44;;;;;;;13.97;8.43;;;8.30;99.90;;;;;;4852991;29;20200;-88
2021/12/31 11:38:23;;;;;;;15.50;8.63;;;8.30;99.90;;;;;;4855067;29;20657;-88
2021/12/31 11:41:02;;;;;;;15.87;8.23;;;8.30;99.90;;;;;;4852061;29;20218;-86
2021/12/31 11:43:30;;;;;;;14.13;8.93;;;8.40;99.90;;;;;;4859723;29;20748;-86
2021/12/31 11:46:12;;;;;;;15.37;9.17;;;8.40;99.90;;;;;;4857614;29;20206;-86
2021/12/31 11:48:54;;;;;;;21.43;9.37;;;8.40;99.90;;;;;;4857471;29;20267;-86
2021/12/31 11:51:20;;;;;;;15.53;9.63;;;;;;;;;;4855550;29;20194;-84
2021/12/31 11:53:58;;;;;;;18.20;9.80;;;8.40;99.90;;;;;;4851612;29;20269;-85
2021/12/31 11:56:49;;;;;;;15.27;9.27;;;8.50;99.90;;;;;;4857912;29;20183;-85
2021/12/31 11:59:19;;;;;;;13.67;8.20;;;8.50;99.90;;;;;;4859189;29;20179;-86
2021/12/31 12:02:04;;;;;;;14.10;8.20;;;8.60;99.90;;;;;;4865523;29;20218;-86
2021/12/31 12:04:37;;;;;;;15.97;8.80;;;8.60;99.90;;;;;;4858595;29;20306;-85
2021/12/31 12:07:05;;;;;;;14.90;8.83;;;8.70;99.90;;;;;;4857280;29;20488;-87
2021/12/31 12:09:36;;;;;;;12.30;7.67;;;8.60;99.90;;;;;;4871487;29;20591;-88
2021/12/31 12:12:08;;;;;;;13.17;7.77;;;8.70;99.90;;;;;;4855307;29;20190;-88
2021/12/31 12:14:42;;;;;;;9.70;6.87;;;8.80;99.90;;;;;;4860149;29;20218;-87
2021/12/31 12:17:09;;;;;;;11.10;7.33;;;8.80;99.90;;;;;;4857224;29;20802;-87
2021/12/31 12:19:50;;;;;;;10.20;6.63;;;8.80;99.90;;;;;;4854514;29;20296;-86
2021/12/31 12:22:37;;;;;;;10.67;6.57;;;8.90;99.90;;;;;;4857267;29;20248;-85
2021/12/31 12:25:22;;;;;;;10.53;6.17;;;9.00;99.90;;;;;;4857806;29;20182;-89
2021/12/31 12:27:52;;;;;;;9.00;5.97;;;9.10;99.90;;;;;;4856366;29;20223;-88
2021/12/31 12:30:19;;;;;;;10.90;7.40;;;9.20;99.90;;;;;;4855072;29;20239;-87
2021/12/31 12:35:23;;;;;;;11.30;6.97;;;9.20;99.90;;;;;;4857411;29;20231;-85
2021/12/31 12:38:19;;;;;;;11.10;7.73;;;9.20;99.90;;;;;;4857314;29;20186;-89
2021/12/31 12:41:09;;;;;;;12.20;7.23;;;9.30;99.90;;;;;;4867386;29;20233;-88
2021/12/31 12:43:49;;;;;;;13.00;7.80;;;9.40;99.90;;;;;;4853572;29;20220;-85
2021/12/31 12:46:18;;;;;;;13.93;8.77;;;9.30;99.90;;;;;;4852756;29;20214;-86
2021/12/31 12:48:51;;;;;;;13.37;8.03;;;9.50;99.90;;;;;;4857771;29;20577;-86
2021/12/31 12:51:42;;;;;;;13.20;8.37;;;9.40;99.90;;;;;;4852772;29;20677;-86
2021/12/31 12:54:11;;;;;;;13.63;8.83;;;;;;;;;;4854504;29;20754;-87
2021/12/31 12:56:37;;;;;;;15.93;9.43;;;;;;;;;;4857599;29;20594;-87
2021/12/31 12:59:03;;;;;;;13.77;9.60;;;;;;;;;;4853577;29;20238;-87
2021/12/31 13:01:39;;;;;;;15.73;9.07;;;9.50;99.90;;;;;;4841302;29;20191;-87
2021/12/31 13:04:07;;;;;;;14.73;9.30;;;9.50;99.90;;;;;;4854077;29;20194;-90
2021/12/31 13:06:33;;;;;;;13.53;9.37;;;;;;;;;;4863735;29;20197;-85
2021/12/31 13:09:15;;;;;;;16.57;11.10;;;9.50;99.90;;;;;;4858205;29;20186;-88
2021/12/31 13:11:45;;;;;;;9.00;6.50;;;9.50;99.90;;;;;;4859797;29;20179;-85
2021/12/31 13:14:16;;;;;;;21.63;14.30;;;9.50;99.90;;;;;;4859716;29;20225;-87
2021/12/31 13:16:43;;;;;;;18.20;11.03;;;9.50;99.90;;;;;;4858238;29;20258;-88